Time;durP1;ratioP1;P1;durP2;ratioP2;P2;SDS_P1;SDS_P2;PMS_P1;PMS_P2;Temp;Humidity;BMP_temperature;BMP_pressure;BME280_temperature;BME280_humidity;BME280_pressure;Samples;Min_cycle;Max_cycle;Signal;HPM_P1;HPM_P2
2023/01/19 00:02:20;;;;;;;;;13.50;13.50;;;;;4.71;62.59;100188.13;5060402;28;45310;-57
2023/01/19 00:04:45;;;;;;;;;13.50;13.50;;;;;4.71;62.46;100185.50;5059889;28;46053;-56
2023/01/19 00:07:11;;;;;;;;;17.50;13.00;;;;;4.67;62.85;100189.84;5060493;28;45355;-57
2023/01/19 00:09:37;;;;;;;;;19.25;18.00;;;;;4.67;62.99;100202.84;5060453;28;45528;-57
2023/01/19 00:12:03;;;;;;;;;20.00;19.50;;;;;4.64;62.69;100200.25;5060198;28;45520;-57
2023/01/19 00:14:29;;;;;;;;;19.50;16.75;;;;;4.63;62.75;100195.91;5060123;28;46969;-57
2023/01/19 00:16:55;;;;;;;;;17.00;16.25;;;;;4.61;63.16;100200.25;5060426;28;45348;-56
2023/01/19 00:19:20;;;;;;;;;18.00;16.75;;;;;4.61;62.99;100202.00;5060023;28;45192;-57
2023/01/19 00:21:45;;;;;;;;;13.00;12.75;;;;;4.61;62.87;100210.66;5060242;28;45416;-57
2023/01/19 00:24:12;;;;;;;;;14.00;14.00;;;;;4.62;62.74;100214.16;5060087;28;46413;-57
2023/01/19 00:26:39;;;;;;;;;14.25;14.00;;;;;4.60;63.24;100215.88;5063819;28;45445;-56
2023/01/19 00:29:06;;;;;;;;;17.50;14.75;;;;;4.59;62.63;100211.53;5063231;28;45325;-57
2023/01/19 00:31:32;;;;;;;;;16.00;14.50;;;;;4.62;63.07;100203.72;5060190;28;45295;-56
2023/01/19 00:33:58;;;;;;;;;16.75;13.00;;;;;4.61;63.20;100204.59;5059797;28;45941;-57
2023/01/19 00:36:23;;;;;;;;;13.00;10.75;;;;;4.58;63.01;100213.25;5060022;28;45235;-56
2023/01/19 00:38:48;;;;;;;;;17.50;17.50;;;;;4.59;63.13;100214.13;5060074;28;45219;-57
2023/01/19 00:41:14;;;;;;;;;19.00;16.00;;;;;4.55;63.14;100219.34;5059751;28;45596;-57
2023/01/19 00:43:39;;;;;;;;;13.50;12.25;;;;;4.58;62.99;100226.28;5059797;28;45981;-57
2023/01/19 00:46:05;;;;;;;;;16.00;13.75;;;;;4.58;63.25;100226.28;5060190;28;45294;-57
2023/01/19 00:48:30;;;;;;;;;16.50;11.50;;;;;4.53;63.09;100213.25;5063693;28;45479;-57
2023/01/19 00:50:56;;;;;;;;;13.50;12.25;;;;;4.56;63.00;100221.03;5061978;28;45249;-57
2023/01/19 00:53:21;;;;;;;;;12.75;11.75;;;;;4.53;63.38;100223.66;5063451;28;47039;-57
2023/01/19 00:55:46;;;;;;;;;15.25;12.50;;;;;4.56;63.15;100226.25;5063536;28;45315;-57
2023/01/19 00:58:12;;;;;;;;;16.00;14.25;;;;;4.55;63.17;100227.13;5063313;28;45161;-57
2023/01/19 01:00:37;;;;;;;;;11.50;11.00;;;;;4.57;63.36;100224.53;5062093;28;45157;-57
2023/01/19 01:03:03;;;;;;;;;13.25;12.00;;;;;4.56;63.06;100221.03;5063168;28;46137;-57
2023/01/19 01:05:28;;;;;;;;;15.50;12.75;;;;;4.56;63.15;100222.78;5062708;28;45398;-57
2023/01/19 01:07:54;;;;;;;;;12.50;12.00;;;;;4.56;63.21;100231.44;5063358;28;45395;-57
2023/01/19 01:10:25;;;;;;;;;13.25;12.75;;;;;4.56;63.06;100235.81;5063331;28;45247;-57
2023/01/19 01:12:51;;;;;;;;;18.00;13.50;;;;;4.52;63.44;100239.28;5062790;28;46203;-57
2023/01/19 01:15:17;;;;;;;;;16.25;12.75;;;;;4.55;63.47;100244.47;5063324;28;45156;-57
2023/01/19 01:17:46;;;;;;;;;16.75;13.25;;;;;4.57;63.00;100247.97;5063455;28;45274;-57
2023/01/19 01:20:17;;;;;;;;;15.25;12.50;;;;;4.60;62.97;100247.09;5062885;28;45502;-57
2023/01/19 01:22:48;;;;;;;;;17.75;14.00;;;;;4.62;63.10;100255.78;5062838;28;45362;-57
2023/01/19 01:25:15;;;;;;;;;13.25;11.00;;;;;4.62;63.33;100255.78;5061615;28;45262;-57
2023/01/19 01:27:41;;;;;;;;;14.75;12.50;;;;;4.62;63.11;100250.59;5070159;28;45492;-57
2023/01/19 01:30:09;;;;;;;;;16.00;13.25;;;;;4.64;63.03;100264.44;5062930;28;45457;-57
2023/01/19 01:32:34;;;;;;;;;19.50;18.00;;;;;4.63;63.21;100262.69;5062708;28;46397;-57
2023/01/19 01:35:00;;;;;;;;;17.50;14.25;;;;;4.60;63.29;100265.31;5062622;28;45359;-56
2023/01/19 01:37:25;;;;;;;;;10.75;9.25;;;;;4.58;63.83;100267.03;5062911;28;45397;-57
2023/01/19 01:39:50;;;;;;;;;12.50;11.25;;;;;4.55;63.86;100270.50;5061346;28;45426;-57
2023/01/19 01:42:18;;;;;;;;;18.00;12.25;;;;;4.51;63.69;100287.84;5062485;28;45990;-57
2023/01/19 01:44:49;;;;;;;;;15.00;14.75;;;;;4.51;63.53;100285.22;5062706;28;45416;-57
2023/01/19 01:47:41;;;;;;;;;12.00;12.00;;;;;4.48;63.65;100279.16;5062950;28;45350;-57
2023/01/19 01:50:09;;;;;;;;;18.00;14.25;;;;;4.51;63.46;100285.22;5060907;28;45470;-56
2023/01/19 01:52:42;;;;;;;;;16.50;14.75;;;;;4.53;63.41;100283.50;5062441;28;45386;-57
2023/01/19 01:55:09;;;;;;;;;18.00;15.75;;;;;4.54;63.63;100282.66;5062451;28;45392;-57
2023/01/19 01:57:38;;;;;;;;;15.25;15.25;;;;;4.56;63.08;100278.31;5062460;28;45294;-57
2023/01/19 02:00:05;;;;;;;;;23.25;18.00;;;;;4.59;63.66;100287.00;5062225;28;45280;-57
2023/01/19 02:02:49;;;;;;;;;21.50;16.25;;;;;4.62;63.15;100295.69;5062192;28;46313;-57
2023/01/19 02:05:33;;;;;;;;;15.75;14.25;;;;;4.58;63.41;100295.66;5061031;28;45415;-57
2023/01/19 02:13:36;;;;;;;;;13.75;11.75;;;;;4.51;63.65;100300.00;5062340;28;45259;-57
2023/01/19 02:16:06;;;;;;;;;8.00;7.00;;;;;4.45;63.45;100303.41;5062031;28;45395;-57
2023/01/19 02:18:32;;;;;;;;;17.00;13.75;;;;;4.46;63.62;100309.50;5062264;28;45327;-57
2023/01/19 02:21:08;;;;;;;;;18.25;17.25;;;;;4.45;63.83;100311.22;5061740;28;45533;-57
2023/01/19 02:23:40;;;;;;;;;14.25;14.25;;;;;4.45;63.74;100320.78;5061978;28;46964;-57
2023/01/19 02:26:08;;;;;;;;;17.75;16.00;;;;;4.42;63.60;100318.19;5061711;28;45222;-57
2023/01/19 02:28:38;;;;;;;;;11.50;8.00;;;;;4.40;63.77;100312.94;5069386;28;45335;-57
2023/01/19 02:31:05;;;;;;;;;13.50;12.75;;;;;4.37;63.67;100315.53;5094881;27;45256;-57
2023/01/19 02:33:30;;;;;;;;;19.00;18.25;;;;;4.39;63.33;100316.44;5061755;28;45307;-57
2023/01/19 02:35:56;;;;;;;;;24.00;19.00;;;;;4.36;63.84;100308.59;5061480;28;45205;-57
2023/01/19 02:38:26;;;;;;;;;20.75;16.75;;;;;4.36;63.37;100324.22;5061873;28;45462;-57
2023/01/19 02:40:54;;;;;;;;;23.25;19.75;;;;;4.32;63.49;100307.72;5060340;28;45368;-57
2023/01/19 02:43:22;;;;;;;;;17.25;15.25;;;;;4.31;63.74;100315.50;5061688;28;46825;-57
2023/01/19 02:45:48;;;;;;;;;16.00;12.00;;;;;4.27;63.99;100309.44;5061732;28;45322;-57
2023/01/19 02:48:17;;;;;;;;;16.00;15.50;;;;;4.31;63.85;100312.91;5061612;28;45316;-57
2023/01/19 02:50:48;;;;;;;;;18.50;17.50;;;;;4.29;63.49;100315.50;5061391;28;45425;-57
2023/01/19 02:53:31;;;;;;;;;23.00;18.75;;;;;4.31;63.78;100310.31;5061511;28;46189;-57
2023/01/19 02:56:18;;;;;;;;;26.50;20.25;;;;;4.31;63.44;100310.31;5061517;28;45434;-56
2023/01/19 02:58:55;;;;;;;;;20.00;16.75;;;;;4.29;63.50;100306.81;5061386;28;45421;-57
2023/01/19 03:01:40;;;;;;;;;21.25;18.00;;;;;4.27;63.67;100301.63;5061425;28;45335;-57
2023/01/19 03:04:15;;;;;;;;;24.75;22.50;;;;;4.29;63.81;100305.09;5059580;28;46813;-57
2023/01/19 03:06:45;;;;;;;;;20.25;18.75;;;;;4.26;63.76;100307.69;5061454;28;45305;-57
2023/01/19 03:09:37;;;;;;;;;22.25;20.75;;;;;4.25;64.09;100310.28;5059617;28;45228;-57
2023/01/19 03:12:28;;;;;;;;;26.75;20.25;;;;;4.23;63.66;100311.13;5060056;28;45481;-57
2023/01/19 03:15:01;;;;;;;;;23.00;20.25;;;;;4.22;63.71;100306.78;5061148;28;46097;-57
2023/01/19 03:17:29;;;;;;;;;19.75;17.50;;;;;4.18;63.60;100312.84;5061258;28;45310;-57
2023/01/19 03:19:56;;;;;;;;;23.50;17.75;;;;;4.17;63.84;100313.69;5060797;28;45372;-63
2023/01/19 03:22:26;;;;;;;;;20.50;17.75;;;;;4.14;63.68;100308.50;5061146;28;45439;-59
2023/01/19 03:24:57;;;;;;;;;22.25;17.25;;;;;4.16;63.64;100305.91;5061085;28;45338;-59
2023/01/19 03:27:32;;;;;;;;;21.50;18.25;;;;;4.13;64.02;100300.69;5068184;28;45371;-57
2023/01/19 03:30:06;;;;;;;;;22.25;16.75;;;;;4.13;63.97;100306.75;5061276;28;45447;-57
2023/01/19 03:32:36;;;;;;;;;20.75;16.50;;;;;4.16;63.80;100308.50;5059741;28;45391;-57
2023/01/19 03:35:08;;;;;;;;;18.25;16.00;;;;;4.13;63.94;100309.34;5060701;28;47385;-57
2023/01/19 03:37:40;;;;;;;;;17.00;16.50;;;;;4.11;63.86;100308.47;5060857;28;45480;-57
2023/01/19 03:40:07;;;;;;;;;21.25;18.25;;;;;4.09;63.78;100310.22;5059376;28;45346;-57
2023/01/19 03:42:34;;;;;;;;;26.50;18.50;;;;;4.11;63.82;100316.28;5060698;28;45240;-57
2023/01/19 03:45:00;;;;;;;;;23.00;19.50;;;;;4.11;63.98;100311.06;5060603;28;46019;-57
2023/01/19 03:47:27;;;;;;;;;24.00;20.50;;;;;4.09;64.12;100310.22;5060952;28;45387;-57
2023/01/19 03:49:55;;;;;;;;;16.75;16.25;;;;;4.07;64.10;100322.31;5059133;28;45490;-57
2023/01/19 03:52:32;;;;;;;;;22.00;17.25;;;;;4.07;63.88;100317.13;5059410;28;45468;-57
2023/01/19 03:54:59;;;;;;;;;21.00;17.25;;;;;4.07;64.19;100327.53;5060449;28;45299;-57
2023/01/19 03:57:25;;;;;;;;;26.50;20.75;;;;;4.05;63.54;100324.03;5060505;28;45324;-57
2023/01/19 03:59:50;;;;;;;;;23.25;16.25;;;;;4.02;64.24;100326.63;5060486;28;45305;-57
2023/01/19 04:02:15;;;;;;;;;16.25;16.00;;;;;4.00;64.38;100324.03;5060673;28;45219;-57
2023/01/19 04:04:41;;;;;;;;;21.50;20.25;;;;;3.96;63.70;100317.06;5058609;28;45259;-57
2023/01/19 04:07:09;;;;;;;;;25.50;19.00;;;;;3.89;64.17;100315.28;5060581;28;45320;-57
2023/01/19 04:09:34;;;;;;;;;20.00;15.50;;;;;3.90;63.89;100328.28;5060529;28;45280;-57
2023/01/19 04:12:00;;;;;;;;;19.25;17.25;;;;;3.84;63.74;100325.66;5060174;28;45771;-57
2023/01/19 04:14:26;;;;;;;;;24.00;18.75;;;;;3.81;64.10;100330.84;5060171;28;45430;-57
2023/01/19 04:16:51;;;;;;;;;25.00;18.50;;;;;3.77;63.88;100333.41;5060270;28;45310;-57
2023/01/19 04:19:16;;;;;;;;;21.75;18.00;;;;;3.73;64.35;100337.69;5060090;28;45227;-57
2023/01/19 04:21:42;;;;;;;;;23.75;20.50;;;;;3.70;64.04;100337.69;5059071;28;45334;-57
2023/01/19 04:24:09;;;;;;;;;24.50;21.00;;;;;3.65;64.26;100328.97;5060043;28;45324;-57
2023/01/19 04:26:34;;;;;;;;;23.25;21.00;;;;;3.63;64.27;100333.31;5063188;28;45259;-57
2023/01/19 04:28:59;;;;;;;;;26.75;20.00;;;;;3.57;64.34;100337.59;5063916;28;45227;-57
2023/01/19 04:31:25;;;;;;;;;29.50;21.75;;;;;3.53;64.19;100335.81;5058905;28;45241;-57
2023/01/19 04:33:50;;;;;;;;;25.75;20.50;;;;;3.46;64.36;100322.75;5059764;28;45248;-57
2023/01/19 04:36:16;;;;;;;;;34.50;25.25;;;;;3.49;64.43;100328.00;5060082;28;45161;-57
2023/01/19 04:38:41;;;;;;;;;20.75;18.25;;;;;3.39;64.05;100312.31;5059914;28;45486;-57
2023/01/19 04:41:06;;;;;;;;;24.50;21.50;;;;;3.45;64.64;100321.91;5059652;28;45212;-57
2023/01/19 04:43:32;;;;;;;;;20.00;18.75;;;;;3.44;64.58;100321.91;5059876;28;45276;-57
2023/01/19 04:45:58;;;;;;;;;30.75;23.50;;;;;3.42;64.21;100322.75;5059920;28;45210;-57
2023/01/19 04:48:23;;;;;;;;;27.50;25.75;;;;;3.44;64.11;100329.69;5060053;28;45738;-57
2023/01/19 04:50:51;;;;;;;;;33.00;28.50;;;;;3.44;64.56;100321.91;5059585;28;45324;-57
2023/01/19 04:53:17;;;;;;;;;26.50;24.00;;;;;3.46;64.02;100334.03;5059582;28;46207;-57
2023/01/19 04:55:43;;;;;;;;;27.00;22.00;;;;;3.45;64.26;100329.69;5059414;28;45287;-57
2023/01/19 04:58:08;;;;;;;;;30.75;25.75;;;;;3.48;64.48;100326.25;5059706;28;45812;-57
2023/01/19 05:00:34;;;;;;;;;21.75;19.75;;;;;3.47;64.25;100314.09;5059672;28;45246;-56
2023/01/19 05:03:00;;;;;;;;;22.75;19.50;;;;;3.43;64.21;100318.41;5059437;28;45386;-57
2023/01/19 05:05:26;;;;;;;;;26.25;21.50;;;;;3.44;64.50;100325.34;5059270;28;45395;-57
2023/01/19 05:07:51;;;;;;;;;23.50;21.75;;;;;3.39;64.83;100322.69;5059615;28;45321;-57
2023/01/19 05:10:17;;;;;;;;;26.25;19.00;;;;;3.41;64.68;100327.94;5059784;28;45355;-57
2023/01/19 05:12:42;;;;;;;;;21.25;19.25;;;;;3.47;64.64;100327.09;5059119;28;45339;-57
2023/01/19 05:15:09;;;;;;;;;25.75;21.25;;;;;3.47;64.72;100327.09;5059454;28;45193;-57
2023/01/19 05:17:35;;;;;;;;;28.75;24.25;;;;;3.46;64.24;100330.56;5059538;28;45581;-57
2023/01/19 05:20:00;;;;;;;;;21.75;20.75;;;;;3.47;64.72;100325.38;5057975;28;45461;-57
2023/01/19 05:22:26;;;;;;;;;26.00;22.25;;;;;3.45;64.50;100328.81;5059116;28;46144;-57
2023/01/19 05:24:51;;;;;;;;;17.25;16.50;;;;;3.44;64.61;100327.94;5059535;28;45414;-57
2023/01/19 05:27:16;;;;;;;;;26.50;21.00;;;;;3.43;64.93;100331.41;5065964;28;45328;-57
2023/01/19 05:29:42;;;;;;;;;28.50;22.75;;;;;3.39;64.87;100320.09;5059539;28;45453;-57
2023/01/19 05:32:07;;;;;;;;;25.25;23.25;;;;;3.40;64.97;100329.66;5059440;28;47027;-57
2023/01/19 05:34:33;;;;;;;;;26.00;21.00;;;;;3.39;64.94;100332.22;5062750;28;45370;-57
2023/01/19 05:36:58;;;;;;;;;26.00;22.50;;;;;3.41;64.43;100328.78;5062668;28;45291;-57
2023/01/19 05:39:25;;;;;;;;;21.50;20.00;;;;;3.44;64.57;100337.47;5062823;28;45324;-57
2023/01/19 05:41:51;;;;;;;;;25.50;17.75;;;;;3.40;64.74;100329.66;5062461;28;46027;-57
2023/01/19 05:44:16;;;;;;;;;24.75;20.00;;;;;3.42;64.92;100340.03;5062893;28;45251;-57
2023/01/19 05:46:41;;;;;;;;;28.50;22.50;;;;;3.43;64.79;100334.00;5062645;28;45267;-57
2023/01/19 05:49:07;;;;;;;;;29.00;20.00;;;;;3.44;64.87;100333.13;5061121;28;45238;-57
2023/01/19 05:51:36;;;;;;;;;23.50;22.25;;;;;3.41;64.91;100328.78;5062439;28;46406;-57
2023/01/19 05:54:05;;;;;;;;;22.00;19.00;;;;;3.38;64.63;100335.69;5062679;28;45340;-57
2023/01/19 05:56:31;;;;;;;;;21.00;21.00;;;;;3.39;64.57;100335.69;5062452;28;45200;-57
2023/01/19 05:58:57;;;;;;;;;19.50;16.25;;;;;3.40;64.70;100344.38;5062572;28;45477;-57
2023/01/19 06:01:22;;;;;;;;;22.50;17.25;;;;;3.40;64.64;100341.78;5062291;28;45405;-57
2023/01/19 06:03:48;;;;;;;;;18.25;14.50;;;;;3.42;65.16;100340.03;5044050;28;45741;-57
2023/01/19 06:06:14;;;;;;;;;23.00;19.00;;;;;3.39;64.60;100346.09;5062341;28;45304;-57
2023/01/19 06:08:40;;;;;;;;;18.00;15.25;;;;;3.37;64.78;100345.22;5062400;28;45306;-56
2023/01/19 06:11:06;;;;;;;;;23.00;19.25;;;;;3.37;64.68;100331.34;5061990;28;46060;-57
2023/01/19 06:13:32;;;;;;;;;22.25;19.50;;;;;3.38;64.81;100340.88;5062305;28;45367;-56
2023/01/19 06:16:01;;;;;;;;;20.75;18.75;;;;;3.39;64.61;100346.09;5062214;28;45378;-57
2023/01/19 06:18:28;;;;;;;;;23.25;18.50;;;;;3.40;64.78;100346.97;5062194;28;45553;-57
2023/01/19 06:20:57;;;;;;;;;27.25;24.50;;;;;3.44;64.80;100345.28;5060617;28;47045;-57
2023/01/19 06:23:29;;;;;;;;;24.50;20.75;;;;;3.42;64.69;100350.44;5062178;28;45315;-56
2023/01/19 06:25:55;;;;;;;;;17.25;12.00;;;;;3.43;64.86;100346.97;5062040;28;45350;-57
2023/01/19 06:28:21;;;;;;;;;21.25;18.25;;;;;3.42;64.81;100350.44;5069222;28;45507;-57
2023/01/19 06:30:51;;;;;;;;;33.75;27.50;;;;;3.40;65.15;100349.56;5061994;28;47079;-57
2023/01/19 06:33:17;;;;;;;;;24.50;23.00;;;;;3.38;65.16;100351.28;5061936;28;45314;-57
2023/01/19 06:35:43;;;;;;;;;19.75;16.00;;;;;3.44;65.00;100358.25;5061617;28;45303;-57
2023/01/19 06:38:09;;;;;;;;;20.00;16.50;;;;;3.45;64.93;100354.78;5061802;28;45464;-57
2023/01/19 06:40:34;;;;;;;;;21.75;18.75;;;;;3.45;65.12;100355.69;5061494;28;45304;-57
2023/01/19 06:42:59;;;;;;;;;16.25;13.00;;;;;3.46;65.04;100359.13;5061731;28;45354;-57
2023/01/19 06:45:25;;;;;;;;;15.50;15.25;;;;;3.41;65.03;100353.91;5060905;28;45488;-56
2023/01/19 06:47:50;;;;;;;;;21.50;18.00;;;;;3.46;64.77;100359.13;5061859;28;45445;-57
2023/01/19 06:50:15;;;;;;;;;21.75;17.50;;;;;3.48;65.06;100366.06;5061241;28;45503;-57
2023/01/19 06:52:41;;;;;;;;;21.25;15.75;;;;;3.40;64.94;100368.63;5060454;28;45301;-57
2023/01/19 06:55:09;;;;;;;;;25.25;23.25;;;;;3.40;65.26;100372.94;5061563;28;45328;-57
2023/01/19 06:57:37;;;;;;;;;24.00;20.50;;;;;3.35;64.98;100364.25;5061443;28;45362;-57
2023/01/19 07:00:06;;;;;;;;;17.75;15.00;;;;;3.35;64.91;100365.09;5061240;28;46331;-57
2023/01/19 07:02:32;;;;;;;;;21.50;17.00;;;;;3.35;65.26;100369.44;5060212;28;45367;-57
2023/01/19 07:04:57;;;;;;;;;12.00;8.75;;;;;3.39;65.59;100373.81;5061219;28;45308;-57
2023/01/19 07:07:23;;;;;;;;;15.50;14.50;;;;;3.38;65.37;100370.34;5061378;28;45404;-57
2023/01/19 07:09:49;;;;;;;;;18.50;13.75;;;;;3.39;64.76;100373.81;5061100;28;47040;-57
2023/01/19 07:12:14;;;;;;;;;20.00;17.25;;;;;3.34;65.43;100368.56;5061085;28;45250;-57
2023/01/19 07:14:39;;;;;;;;;21.00;17.50;;;;;3.35;65.01;100367.69;5061305;28;45442;-57
2023/01/19 07:17:05;;;;;;;;;19.75;16.25;;;;;3.35;65.15;100375.50;5061257;28;45162;-57
2023/01/19 07:19:30;;;;;;;;;19.50;16.75;;;;;3.31;65.15;100371.13;5060639;28;46227;-57
2023/01/19 07:21:56;;;;;;;;;20.00;18.25;;;;;3.37;65.11;100368.59;5061031;28;45269;-57
2023/01/19 07:24:22;;;;;;;;;23.50;16.50;;;;;3.36;65.12;100371.19;5061072;28;45304;-57
2023/01/19 07:26:47;;;;;;;;;18.25;12.50;;;;;3.34;64.83;100372.88;5066226;28;45158;-57
2023/01/19 07:29:13;;;;;;;;;23.25;21.00;;;;;3.33;65.43;100372.00;5063011;28;46195;-56
2023/01/19 07:31:38;;;;;;;;;28.50;19.25;;;;;3.20;65.17;100352.84;5060989;28;45263;-57
2023/01/19 07:34:04;;;;;;;;;19.00;18.25;;;;;3.31;65.06;100368.53;5061056;28;45327;-57
2023/01/19 07:36:29;;;;;;;;;15.75;13.50;;;;;3.31;65.57;100376.31;5060843;28;45530;-57
2023/01/19 07:38:54;;;;;;;;;19.50;15.25;;;;;3.31;64.76;100381.53;5060507;28;46144;-57
2023/01/19 07:41:20;;;;;;;;;14.00;13.00;;;;;3.30;65.43;100369.38;5060773;28;45259;-57
2023/01/19 07:43:45;;;;;;;;;15.75;13.25;;;;;3.30;65.39;100371.97;5059688;28;45268;-58
2023/01/19 07:46:11;;;;;;;;;21.25;15.25;;;;;3.28;65.54;100381.47;5060780;28;45525;-58
2023/01/19 07:48:36;;;;;;;;;29.50;22.75;;;;;3.28;65.69;100383.22;5060315;28;45944;-58
2023/01/19 07:51:04;;;;;;;;;26.50;15.75;;;;;3.22;65.63;100382.31;5059382;28;45418;-58
2023/01/19 07:53:30;;;;;;;;;17.75;16.00;;;;;3.19;65.28;100379.66;5059377;28;45200;-58
2023/01/19 07:55:56;;;;;;;;;20.25;15.50;;;;;3.23;65.07;100389.25;5060335;28;45429;-58
2023/01/19 07:58:25;;;;;;;;;22.25;17.25;;;;;3.24;65.47;100397.91;5059007;28;47366;-58
2023/01/19 08:00:51;;;;;;;;;20.25;16.50;;;;;3.22;65.01;100390.09;5060513;28;45403;-58
2023/01/19 08:03:17;;;;;;;;;17.50;14.00;;;;;3.08;65.52;100382.16;5060486;28;45269;-58
2023/01/19 08:05:43;;;;;;;;;21.50;14.50;;;;;3.16;65.61;100395.22;5059973;28;45472;-57
2023/01/19 08:08:10;;;;;;;;;22.25;20.25;;;;;3.18;65.26;100387.44;5059203;28;46693;-58
2023/01/19 08:10:35;;;;;;;;;22.75;21.25;;;;;3.15;65.19;100393.47;5060372;28;45296;-58
2023/01/19 08:13:01;;;;;;;;;24.75;18.25;;;;;3.17;65.14;100399.56;5060333;28;45207;-58
2023/01/19 08:15:26;;;;;;;;;16.25;15.25;;;;;3.14;65.36;100391.72;5060410;28;45244;-58
2023/01/19 08:18:00;;;;;;;;;19.00;14.75;;;;;3.17;65.22;100401.28;5060213;28;46180;-58
2023/01/19 08:20:27;;;;;;;;;20.50;19.00;;;;;3.15;65.64;100406.47;5058620;28;46114;-58
2023/01/19 08:22:59;;;;;;;;;23.75;22.25;;;;;3.12;65.21;100406.44;5060320;28;45291;-57
2023/01/19 08:25:33;;;;;;;;;28.50;20.50;;;;;3.09;65.41;100407.28;5060209;28;45234;-58
2023/01/19 08:27:59;;;;;;;;;18.75;16.75;;;;;3.08;65.71;100404.63;5067284;28;45554;-57
2023/01/19 08:30:25;;;;;;;;;20.00;16.00;;;;;3.12;65.76;100415.94;5059888;28;45240;-58
2023/01/19 08:32:52;;;;;;;;;20.50;19.50;;;;;3.13;65.33;100420.28;5060333;28;45380;-58
2023/01/19 08:35:18;;;;;;;;;18.25;16.75;;;;;3.03;65.33;100416.69;5059865;28;45482;-57
2023/01/19 08:37:43;;;;;;;;;21.50;17.50;;;;;3.05;65.89;100421.06;5060084;28;45208;-57
2023/01/19 08:40:09;;;;;;;;;18.00;16.00;;;;;3.08;65.43;100422.81;5058616;28;45565;-58
2023/01/19 08:42:34;;;;;;;;;19.75;19.00;;;;;3.09;65.83;100419.38;5058720;28;45481;-58
2023/01/19 08:45:00;;;;;;;;;22.50;15.75;;;;;3.04;65.65;100418.44;5059996;28;45473;-57
2023/01/19 08:47:25;;;;;;;;;18.25;16.25;;;;;3.00;65.45;100414.09;5058700;28;46422;-58
2023/01/19 08:49:50;;;;;;;;;20.50;17.00;;;;;3.04;65.65;100421.91;5059728;28;45283;-58
2023/01/19 08:52:15;;;;;;;;;21.25;17.00;;;;;3.04;65.48;100421.03;5059976;28;45463;-58
2023/01/19 08:54:41;;;;;;;;;23.00;18.75;;;;;3.04;65.83;100426.25;5059775;28;45449;-57
2023/01/19 08:57:06;;;;;;;;;29.00;25.00;;;;;3.08;65.46;100422.81;5059651;28;46122;-57
2023/01/19 08:59:31;;;;;;;;;18.75;16.75;;;;;3.13;65.47;100418.53;5059539;28;45333;-58
2023/01/19 09:01:57;;;;;;;;;16.75;16.25;;;;;3.14;65.60;100422.88;5059867;28;45304;-58
2023/01/19 09:04:23;;;;;;;;;20.25;16.50;;;;;3.15;65.54;100414.25;5059276;28;45509;-58
2023/01/19 09:06:48;;;;;;;;;22.25;19.50;;;;;3.12;65.57;100419.41;5059662;28;46053;-57
2023/01/19 09:09:14;;;;;;;;;26.25;20.00;;;;;3.09;66.07;100422.84;5062986;28;45283;-58
2023/01/19 09:11:39;;;;;;;;;24.50;21.00;;;;;3.08;66.02;100413.31;5045179;28;45451;-58
2023/01/19 09:14:04;;;;;;;;;25.00;20.50;;;;;3.14;65.70;100420.28;5063059;28;45445;-58
2023/01/19 09:16:30;;;;;;;;;25.75;21.25;;;;;3.16;65.62;100416.00;5063121;28;45970;-58
2023/01/19 09:18:55;;;;;;;;;21.00;20.00;;;;;3.18;65.80;100423.78;5062620;28;45170;-57
2023/01/19 09:21:20;;;;;;;;;29.00;18.75;;;;;3.18;65.67;100422.09;5063438;28;45392;-58
2023/01/19 09:23:47;;;;;;;;;23.75;20.75;;;;;3.20;66.11;100432.50;5061451;28;45388;-58
2023/01/19 09:26:13;;;;;;;;;21.25;17.00;;;;;3.17;65.81;100425.53;5063161;28;47090;-58
2023/01/19 09:28:39;;;;;;;;;19.75;18.75;;;;;3.21;66.21;100422.09;5069503;28;45291;-58
2023/01/19 09:31:06;;;;;;;;;25.50;21.50;;;;;3.22;66.09;100422.97;5062745;28;45315;-58
2023/01/19 09:33:31;;;;;;;;;29.50;22.00;;;;;3.15;65.86;100421.19;5062570;28;45517;-58
2023/01/19 09:35:57;;;;;;;;;25.25;20.00;;;;;3.17;66.12;100422.03;5062603;28;45952;-58
2023/01/19 09:38:24;;;;;;;;;25.25;21.25;;;;;3.20;66.02;100422.09;5062503;28;45358;-58
2023/01/19 09:40:55;;;;;;;;;23.50;17.50;;;;;3.24;65.80;100423.88;5062519;28;45276;-58
2023/01/19 09:43:46;;;;;;;;;27.25;20.50;;;;;3.25;66.19;100421.28;5062609;28;45375;-58
2023/01/19 09:46:19;;;;;;;;;28.50;21.00;;;;;3.32;65.84;100434.34;5062530;28;46058;-57
2023/01/19 09:48:50;;;;;;;;;21.75;20.25;;;;;3.35;66.28;100426.59;5062393;28;45224;-57
2023/01/19 09:51:27;;;;;;;;;25.50;22.50;;;;;3.39;65.62;100428.34;5062705;28;45461;-58
2023/01/19 09:54:09;;;;;;;;;24.75;22.25;;;;;3.41;66.09;100418.84;5062617;28;45328;-57
2023/01/19 09:56:35;;;;;;;;;25.75;18.25;;;;;3.42;66.03;100423.19;5060901;28;48370;-57
2023/01/19 09:59:14;;;;;;;;;26.50;21.25;;;;;3.47;66.25;100421.53;5062435;28;45314;-57
2023/01/19 10:01:59;;;;;;;;;24.50;21.50;;;;;3.53;66.01;100413.75;5062339;28;45433;-58
2023/01/19 10:04:32;;;;;;;;;24.75;18.50;;;;;3.60;65.91;100419.91;5061656;28;45489;-57
2023/01/19 10:07:31;;;;;;;;;22.50;17.50;;;;;3.67;65.85;100423.41;5062446;28;45354;-58
2023/01/19 10:10:17;;;;;;;;;23.50;17.25;;;;;3.73;65.91;100429.53;5062123;28;45248;-58
2023/01/19 10:12:51;;;;;;;;;21.25;19.75;;;;;3.80;65.74;100433.06;5060905;28;45344;-57
2023/01/19 10:15:26;;;;;;;;;26.75;21.00;;;;;3.79;65.76;100414.88;5062239;28;45231;-57
2023/01/19 10:18:29;;;;;;;;;26.50;22.75;;;;;3.86;66.08;100425.34;5062097;28;45315;-57
2023/01/19 10:21:11;;;;;;;;;25.75;19.50;;;;;3.87;65.85;100421.88;5061221;28;45172;-57
2023/01/19 10:23:42;;;;;;;;;28.25;19.50;;;;;3.92;66.37;100427.09;5062414;28;45378;-57
2023/01/19 10:26:23;;;;;;;;;25.75;21.00;;;;;3.89;66.03;100420.16;5061769;28;45351;-58
2023/01/19 10:28:53;;;;;;;;;24.00;22.00;;;;;4.00;65.82;100427.16;5055793;28;45541;-56
2023/01/19 10:31:22;;;;;;;;;27.00;22.25;;;;;4.00;65.92;100419.34;5062057;28;45244;-56
2023/01/19 10:33:49;;;;;;;;;23.75;22.75;;;;;4.02;65.89;100421.09;5061795;28;45358;-56
2023/01/19 10:36:20;;;;;;;;;28.75;21.75;;;;;4.06;65.90;100424.59;5062006;28;45383;-56
2023/01/19 10:38:46;;;;;;;;;22.75;21.75;;;;;4.09;65.97;100426.34;5061581;28;45358;-56
2023/01/19 10:41:17;;;;;;;;;18.00;17.00;;;;;4.09;65.73;100419.44;5061589;28;45355;-56
2023/01/19 10:43:45;;;;;;;;;23.00;21.00;;;;;4.12;66.13;100410.78;5061986;28;45223;-58
2023/01/19 10:46:21;;;;;;;;;18.00;18.00;;;;;4.15;65.73;100411.69;5061924;28;45328;-56
2023/01/19 10:48:49;;;;;;;;;21.75;19.25;;;;;4.23;66.12;100407.38;5061218;28;45369;-56
2023/01/19 10:51:15;;;;;;;;;22.00;18.00;;;;;4.23;65.73;100407.38;5061875;28;45290;-56
2023/01/19 10:53:51;;;;;;;;;21.25;18.75;;;;;4.27;66.05;100397.88;5060383;28;45261;-56
2023/01/19 10:56:34;;;;;;;;;22.00;19.00;;;;;4.29;65.91;100403.97;5061526;28;45171;-56
2023/01/19 10:59:02;;;;;;;;;28.75;22.25;;;;;4.29;65.88;100397.88;5061437;28;46357;-56
2023/01/19 11:01:29;;;;;;;;;19.50;18.75;;;;;4.31;66.26;100396.16;5061453;28;45166;-56
2023/01/19 11:04:04;;;;;;;;;35.25;27.25;;;;;4.36;66.11;100399.66;5060048;28;45320;-58
2023/01/19 11:06:31;;;;;;;;;26.00;22.00;;;;;4.34;66.03;100384.03;5059979;28;45957;-57
2023/01/19 11:09:17;;;;;;;;;29.00;25.25;;;;;4.39;65.96;100384.94;5061378;28;45359;-58
2023/01/19 11:11:48;;;;;;;;;32.75;28.75;;;;;4.39;65.82;100389.28;5061406;28;45418;-58
2023/01/19 11:14:18;;;;;;;;;28.25;26.00;;;;;4.40;65.62;100380.59;5061448;28;45354;-58
2023/01/19 11:16:47;;;;;;;;;27.50;26.50;;;;;4.46;65.99;100384.97;5061422;28;45445;-58
2023/01/19 11:19:26;;;;;;;;;27.75;22.75;;;;;4.47;66.08;100365.91;5060880;28;45220;-58
2023/01/19 11:21:52;;;;;;;;;35.50;29.00;;;;;4.53;66.03;100378.94;5061116;28;45475;-58
2023/01/19 11:24:19;;;;;;;;;33.00;25.75;;;;;4.52;65.60;100374.59;5061247;28;45346;-58
2023/01/19 11:26:56;;;;;;;;;32.75;28.75;;;;;4.53;66.13;100372.00;5065611;28;45462;-57
2023/01/19 11:29:24;;;;;;;;;36.50;31.00;;;;;4.57;66.21;100372.88;5061654;28;46202;-58